Time;durP1;ratioP1;P1;durP2;ratioP2;P2;SDS_P1;SDS_P2;PMS_P1;PMS_P2;Temp;Humidity;BMP_temperature;BMP_pressure;BME280_temperature;BME280_humidity;BME280_pressure;Samples;Min_cycle;Max_cycle;Signal;HPM_P1;HPM_P2
2022/11/23 00:00:33;;;;;;;7.67;6.77;;;;;;;11.47;100.00;98206.78;5071733;28;20286;-54
2022/11/23 00:03:00;;;;;;;7.83;7.03;;;;;;;11.42;100.00;98203.56;5071558;28;20243;-54
2022/11/23 00:05:29;;;;;;;10.90;6.90;;;;;;;11.43;100.00;98211.28;5071930;28;20206;-54
2022/11/23 00:07:56;;;;;;;9.07;6.90;;;;;;;11.37;100.00;98214.22;5071226;28;20227;-54
2022/11/23 00:10:23;;;;;;;8.30;7.23;;;;;;;11.31;100.00;98221.50;5071499;28;20196;-57
2022/11/23 00:12:50;;;;;;;8.33;7.53;;;;;;;11.33;100.00;98222.25;5071498;28;20280;-58
2022/11/23 00:15:18;;;;;;;8.63;7.47;;;;;;;11.37;100.00;98214.22;5071488;28;20206;-57
2022/11/23 00:17:47;;;;;;;11.60;8.13;;;;;;;11.37;100.00;98214.22;5071289;28;20192;-58
2022/11/23 00:20:14;;;;;;;11.83;8.37;;;;;;;11.34;100.00;98210.94;5070733;28;20200;-57
2022/11/23 00:22:41;;;;;;;11.53;8.03;;;;;;;11.32;100.00;98200.63;5071125;28;20287;-56
2022/11/23 00:25:08;;;;;;;9.20;8.23;;;;;;;11.35;100.00;98204.84;5071173;28;20291;-57
2022/11/23 00:27:35;;;;;;;9.60;8.00;;;;;;;11.40;100.00;98203.66;5071260;28;20583;-58
2022/11/23 00:30:02;;;;;;;8.50;7.60;;;;;;;11.34;100.00;98209.19;5070790;28;20198;-57
2022/11/23 00:32:31;;;;;;;11.43;8.37;;;;;;;11.25;100.00;98196.69;5071222;28;20225;-56
2022/11/23 00:34:58;;;;;;;12.33;9.53;;;;;;;11.24;100.00;98192.41;5070856;28;20346;-53
2022/11/23 00:37:24;;;;;;;15.63;11.20;;;;;;;11.14;100.00;98175.63;5070876;28;20207;-54
2022/11/23 00:39:51;;;;;;;16.73;12.27;;;;;;;11.12;100.00;98165.31;5070755;28;20247;-52
2022/11/23 00:42:18;;;;;;;12.97;10.70;;;;;;;11.14;100.00;98173.03;5070892;28;20195;-53
2022/11/23 00:44:45;;;;;;;14.67;9.73;;;;;;;11.05;100.00;98189.09;5070750;28;20200;-59
2022/11/23 00:47:12;;;;;;;11.80;10.00;;;;;;;11.04;100.00;98179.63;5070681;28;20307;-57
2022/11/23 00:49:40;;;;;;;12.07;9.53;;;;;;;11.10;100.00;98174.09;5070559;28;20324;-57
2022/11/23 00:52:07;;;;;;;10.40;8.07;;;;;;;11.15;100.00;98159.13;5070909;28;20581;-57
2022/11/23 00:54:34;;;;;;;9.23;8.03;;;;;;;11.24;100.00;98175.06;5070949;28;20733;-58
2022/11/23 00:57:01;;;;;;;9.37;7.23;;;;;;;11.23;100.00;98180.34;5070775;28;20230;-57
2022/11/23 00:59:29;;;;;;;11.63;7.77;;;;;;;11.23;100.00;98176.00;5070820;28;20200;-57
2022/11/23 01:01:56;;;;;;;14.10;8.53;;;;;;;11.25;100.00;98165.53;5070593;28;20601;-58
2022/11/23 01:04:22;;;;;;;11.47;6.50;;;;;;;11.33;100.00;98152.97;5070544;28;20755;-58
2022/11/23 01:06:56;;;;;;;6.77;6.03;;;;;;;11.33;100.00;98155.56;5070289;28;20230;-58
2022/11/23 01:09:25;;;;;;;7.40;5.77;;;;;;;11.37;100.00;98141.50;5070316;28;20713;-57
2022/11/23 01:11:53;;;;;;;5.80;5.30;;;;;;;11.36;100.00;98132.03;5070282;28;20208;-57
2022/11/23 01:14:20;;;;;;;6.70;5.50;;;;;;;11.31;100.00;98115.00;5070499;28;20200;-57
2022/11/23 01:16:48;;;;;;;6.73;5.17;;;;;;;11.17;100.00;98102.78;5070178;28;20200;-57
2022/11/23 01:19:16;;;;;;;10.37;6.60;;;;;;;11.14;100.00;98108.97;5070346;28;20208;-57
2022/11/23 01:21:43;;;;;;;8.57;5.77;;;;;;;11.09;100.00;98112.72;5070254;28;20204;-57
2022/11/23 01:24:14;;;;;;;11.63;6.83;;;;;;;10.95;100.00;98102.25;5070061;28;20192;-57
2022/11/23 01:26:42;;;;;;;6.30;5.67;;;;;;;10.90;100.00;98094.69;5070121;28;20200;-56
2022/11/23 01:29:10;;;;;;;7.23;5.77;;;;;;;10.92;100.00;98059.09;5069984;28;20200;-57
2022/11/23 01:31:37;;;;;;;6.10;5.07;;;;;;;10.89;100.00;98043.69;5069150;28;20204;-57
2022/11/23 01:34:05;;;;;;;9.83;4.90;;;;;;;10.90;100.00;98032.38;5070233;28;20195;-57
2022/11/23 01:36:33;;;;;;;9.80;5.30;;;;;;;10.92;100.00;98033.16;5070182;28;20277;-57
2022/11/23 01:39:02;;;;;;;7.53;5.17;;;;;;;10.88;100.00;98048.03;5070071;28;20198;-57
2022/11/23 01:41:32;;;;;;;5.00;4.50;;;;;;;10.88;100.00;98076.59;5070343;28;20677;-57
2022/11/23 01:43:59;;;;;;;7.13;5.70;;;;;;;10.87;100.00;98090.50;5069992;28;20200;-57
2022/11/23 01:46:26;;;;;;;5.77;4.83;;;;;;;10.95;100.00;98116.03;5070256;28;20623;-55
2022/11/23 01:48:57;;;;;;;8.13;6.60;;;;;;;11.03;100.00;98106.09;5070171;28;20606;-53
2022/11/23 01:51:28;;;;;;;14.13;10.33;;;;;;;10.94;100.00;98079.78;5069888;28;20196;-54
2022/11/23 01:54:00;;;;;;;20.73;14.17;;;;;;;10.68;100.00;98066.44;5069859;28;20219;-55
2022/11/23 01:56:34;;;;;;;21.23;14.23;;;;;;;10.55;100.00;98049.81;5069955;28;20202;-56
2022/11/23 01:59:04;;;;;;;18.07;13.40;;;;;;;10.50;100.00;98041.41;5069979;28;20206;-56
2022/11/23 02:01:31;;;;;;;17.23;13.77;;;;;;;10.46;100.00;98060.69;5069984;28;20206;-56
2022/11/23 02:04:01;;;;;;;21.30;13.50;;;;;;;10.45;100.00;98097.91;5069861;28;20204;-56
2022/11/23 02:06:29;;;;;;;18.93;12.87;;;;;;;10.51;100.00;98093.22;5069831;28;20202;-56
2022/11/23 02:08:56;;;;;;;18.87;12.40;;;;;;;10.51;100.00;98092.38;5069455;28;20228;-56
2022/11/23 02:11:23;;;;;;;10.80;8.13;;;;;;;10.66;100.00;98088.16;5069775;28;20196;-56
2022/11/23 02:13:52;;;;;;;12.23;8.90;;;;;;;10.65;100.00;98068.34;5069839;28;20200;-55
2022/11/23 02:16:19;;;;;;;13.67;8.40;;;;;;;10.79;100.00;98077.09;5069844;28;20737;-55
2022/11/23 02:18:49;;;;;;;14.70;9.50;;;;;;;10.90;100.00;98071.31;5069737;28;20689;-55
2022/11/23 02:21:17;;;;;;;14.83;9.57;;;;;;;10.91;100.00;98066.06;5069575;28;20196;-55
2022/11/23 02:23:57;;;;;;;12.37;10.17;;;;;;;10.97;100.00;98090.00;5069547;28;20196;-54
2022/11/23 02:26:27;;;;;;;15.50;11.50;;;;;;;10.95;100.00;98107.44;5069810;28;20581;-55
2022/11/23 02:28:59;;;;;;;18.97;13.37;;;;;;;10.82;100.00;98107.22;5069560;28;20230;-53
2022/11/23 02:31:26;;;;;;;20.77;15.00;;;;;;;10.71;100.00;98094.81;5069392;28;20235;-54
2022/11/23 02:33:53;;;;;;;19.03;14.83;;;;;;;10.60;100.00;98085.91;5069432;28;20573;-54
2022/11/23 02:36:39;;;;;;;19.53;14.53;;;;;;;10.51;100.00;98072.47;5069789;28;20196;-54
2022/11/23 02:39:10;;;;;;;24.83;14.63;;;;;;;10.46;100.00;98058.91;5069686;28;20187;-55
2022/11/23 02:41:41;;;;;;;22.67;14.17;;;;;;;10.36;100.00;98031.78;5069726;28;20204;-55
2022/11/23 02:44:19;;;;;;;17.20;13.60;;;;;;;10.55;100.00;98060.19;5072796;28;20200;-55
2022/11/23 02:46:46;;;;;;;21.23;15.70;;;;;;;10.44;100.00;98065.94;5073254;28;20207;-57
2022/11/23 02:49:13;;;;;;;23.40;14.60;;;;;;;10.33;100.00;98077.78;5073167;28;20678;-55
2022/11/23 02:51:39;;;;;;;19.90;14.60;;;;;;;10.27;100.00;98065.13;5073413;28;20594;-54
2022/11/23 02:54:06;;;;;;;21.00;14.67;;;;;;;10.16;100.00;98042.28;5073025;28;20233;-54
2022/11/23 02:56:33;;;;;;;19.60;14.60;;;;;;;10.22;100.00;98048.94;5073047;28;20202;-54
2022/11/23 02:59:01;;;;;;;22.07;14.90;;;;;;;10.18;100.00;98056.88;5072810;28;20207;-53
2022/11/23 03:01:29;;;;;;;19.87;15.17;;;;;;;10.13;100.00;98074.41;5073022;28;20826;-53
2022/11/23 03:03:56;;;;;;;21.63;15.20;;;;;;;10.08;100.00;98068.59;5072763;28;20192;-55
2022/11/23 03:06:23;;;;;;;18.50;14.47;;;;;;;10.10;100.00;98066.78;5072718;28;20202;-54
2022/11/23 03:08:50;;;;;;;19.47;14.77;;;;;;;10.11;100.00;98072.78;5072618;28;20690;-55
2022/11/23 03:11:17;;;;;;;18.57;13.80;;;;;;;10.05;100.00;98084.28;5072694;28;20283;-55
2022/11/23 03:13:43;;;;;;;22.13;14.47;;;;;;;10.02;100.00;98087.06;5072661;28;20208;-55
2022/11/23 03:16:12;;;;;;;20.33;15.43;;;;;;;10.05;100.00;98067.91;5072714;28;20258;-56
2022/11/23 03:18:39;;;;;;;18.77;13.63;;;;;;;10.05;100.00;98053.19;5072588;28;20196;-56
2022/11/23 03:21:08;;;;;;;18.73;13.60;;;;;;;10.05;100.00;98049.75;5072648;28;20677;-54
2022/11/23 03:23:35;;;;;;;19.70;13.10;;;;;;;9.98;100.00;98044.06;5072711;28;20203;-56
2022/11/23 03:26:03;;;;;;;18.13;13.50;;;;;;;9.94;100.00;98049.44;5072308;28;20206;-56
2022/11/23 03:28:30;;;;;;;23.60;14.77;;;;;;;9.95;100.00;98039.00;5072325;28;20224;-54
2022/11/23 03:30:57;;;;;;;18.57;13.70;;;;;;;9.95;100.00;98040.75;5072278;28;20576;-53
2022/11/23 03:33:25;;;;;;;18.47;13.27;;;;;;;10.01;100.00;98040.47;5072278;28;20292;-54
2022/11/23 03:35:52;;;;;;;19.17;13.43;;;;;;;10.05;100.00;98032.44;5072070;28;20210;-54
2022/11/23 03:38:19;;;;;;;17.27;12.37;;;;;;;10.12;100.00;98038.19;5072180;28;20206;-54
2022/11/23 03:40:46;;;;;;;17.60;12.30;;;;;;;10.26;100.00;98037.53;5071711;28;20196;-54
2022/11/23 03:43:13;;;;;;;20.70;14.63;;;;;;;10.25;100.00;98043.63;5072252;28;20204;-57
2022/11/23 03:45:41;;;;;;;20.17;15.30;;;;;;;10.19;100.00;98048.19;5072627;28;20192;-57
2022/11/23 03:48:08;;;;;;;19.57;13.30;;;;;;;10.26;100.00;98053.09;5072122;28;20604;-57
2022/11/23 03:50:36;;;;;;;17.53;13.73;;;;;;;10.28;100.00;98053.81;5071950;28;20242;-57
2022/11/23 03:53:04;;;;;;;13.60;12.13;;;;;;;10.41;100.00;98073.03;5071837;28;20197;-57
2022/11/23 03:55:31;;;;;;;16.40;12.43;;;;;;;10.35;100.00;98074.19;5071005;28;20204;-57
2022/11/23 03:57:59;;;;;;;13.67;11.07;;;;;;;10.37;100.00;98066.34;5071927;28;20200;-58
2022/11/23 04:00:26;;;;;;;15.63;11.13;;;;;;;10.40;100.00;98059.22;5071817;28;20206;-58
2022/11/23 04:02:53;;;;;;;14.10;11.47;;;;;;;10.40;100.00;98067.00;5071648;28;20200;-58
2022/11/23 04:05:20;;;;;;;14.23;11.57;;;;;;;10.48;100.00;98074.41;5071833;28;20297;-56
2022/11/23 04:07:49;;;;;;;15.13;10.90;;;;;;;10.46;100.00;98076.25;5071392;28;20289;-55
2022/11/23 04:10:16;;;;;;;17.23;11.33;;;;;;;10.38;100.00;98065.44;5071769;28;20625;-54
2022/11/23 04:12:43;;;;;;;12.40;11.10;;;;;;;10.43;100.00;98078.97;5071651;28;20193;-54
2022/11/23 04:15:11;;;;;;;14.07;11.17;;;;;;;10.43;100.00;98078.97;5071546;28;20196;-54
2022/11/23 04:17:38;;;;;;;15.83;11.57;;;;;;;10.38;100.00;98073.22;5071480;28;20200;-54
2022/11/23 04:20:07;;;;;;;11.43;10.23;;;;;;;10.31;100.00;98075.25;5060684;28;20227;-54
2022/11/23 04:22:34;;;;;;;13.57;11.53;;;;;;;10.26;100.00;98068.63;5070140;28;20234;-54
2022/11/23 04:25:02;;;;;;;13.03;11.63;;;;;;;10.24;100.00;98068.72;5069783;28;20600;-57
2022/11/23 04:27:29;;;;;;;12.73;10.67;;;;;;;10.34;100.00;98043.16;5070646;28;20228;-54
2022/11/23 04:29:56;;;;;;;12.63;10.70;;;;;;;10.27;100.00;98036.59;5070270;28;20238;-54
2022/11/23 04:32:23;;;;;;;13.53;11.27;;;;;;;10.31;100.00;98048.47;5070603;28;20224;-55
2022/11/23 04:34:49;;;;;;;16.03;13.90;;;;;;;10.36;100.00;98054.28;5069605;28;20232;-54
2022/11/23 04:37:16;;;;;;;17.33;15.33;;;;;;;10.38;100.00;98060.25;5070972;28;20226;-55
2022/11/23 04:39:43;;;;;;;18.33;15.40;;;;;;;10.40;100.00;98063.56;5068711;28;20224;-57
2022/11/23 04:42:13;;;;;;;15.70;12.27;;;;;;;10.45;100.00;98061.59;5066376;28;20238;-56
2022/11/23 04:44:39;;;;;;;18.73;11.87;;;;;;;10.43;100.00;98055.63;5069378;28;20701;-56
2022/11/23 04:47:06;;;;;;;14.60;11.53;;;;;;;10.43;100.00;98051.28;5069077;28;20219;-55
2022/11/23 04:49:33;;;;;;;15.00;11.00;;;;;;;10.51;100.00;98064.69;5050073;28;20228;-54
2022/11/23 04:52:00;;;;;;;15.87;13.20;;;;;;;10.51;100.00;98061.25;5060957;28;20614;-54
2022/11/23 04:54:27;;;;;;;16.20;11.63;;;;;;;10.48;100.00;98077.00;5069084;28;20219;-54
2022/11/23 04:56:55;;;;;;;18.03;13.57;;;;;;;10.39;100.00;98080.03;5068847;28;20245;-54
2022/11/23 04:59:23;;;;;;;14.83;10.77;;;;;;;10.32;100.00;98076.09;5066485;28;20223;-54
2022/11/23 05:01:51;;;;;;;14.80;10.80;;;;;;;10.37;100.00;98072.38;5068946;28;20810;-54
2022/11/23 05:04:18;;;;;;;10.63;9.53;;;;;;;10.28;100.00;98049.47;5069294;28;20227;-54
2022/11/23 05:06:45;;;;;;;9.87;8.40;;;;;;;10.43;100.00;98068.59;5069385;28;20228;-54
2022/11/23 05:09:12;;;;;;;10.93;8.37;;;;;;;10.52;100.00;98071.56;5068476;28;20227;-54
2022/11/23 05:11:39;;;;;;;8.90;8.00;;;;;;;10.55;100.00;98075.75;5068715;28;20626;-54
2022/11/23 05:14:06;;;;;;;9.17;7.87;;;;;;;10.68;100.00;98073.38;5068951;28;20223;-54
2022/11/23 05:16:35;;;;;;;12.97;8.50;;;;;;;10.64;100.00;98058.88;5069540;28;20377;-55
2022/11/23 05:19:02;;;;;;;11.57;8.67;;;;;;;10.69;100.00;98065.50;5068791;28;20317;-55
2022/11/23 05:21:29;;;;;;;9.73;8.50;;;;;;;10.73;100.00;98060.97;5069296;28;20219;-55
2022/11/23 05:23:56;;;;;;;10.60;7.93;;;;;;;10.75;100.00;98059.97;5069099;28;20570;-55
2022/11/23 05:26:22;;;;;;;11.87;8.93;;;;;;;10.78;100.00;98062.44;5069091;28;20234;-55
2022/11/23 05:28:49;;;;;;;10.73;8.33;;;;;;;10.83;100.00;98054.41;5068935;28;20239;-58
2022/11/23 05:31:22;;;;;;;8.70;7.80;;;;;;;10.81;100.00;98057.09;5068939;28;20314;-60
2022/11/23 05:33:51;;;;;;;10.23;7.57;;;;;;;10.87;100.00;98074.06;5067769;28;20644;-54
2022/11/23 05:36:23;;;;;;;9.03;8.13;;;;;;;10.82;100.00;98071.75;5068879;28;20665;-55
2022/11/23 05:38:51;;;;;;;11.67;7.57;;;;;;;11.03;100.00;98082.72;5070248;28;20192;-54
2022/11/23 05:41:18;;;;;;;9.53;7.73;;;;;;;11.10;100.00;98067.66;5069516;28;20665;-55
2022/11/23 05:43:45;;;;;;;9.10;8.23;;;;;;;11.15;100.00;98068.25;5069030;28;20283;-53
2022/11/23 05:46:12;;;;;;;7.73;7.03;;;;;;;11.11;100.00;98066.75;5069403;28;20192;-56
2022/11/23 05:48:39;;;;;;;8.00;7.27;;;;;;;11.12;100.00;98061.47;5069320;28;20224;-57
2022/11/23 05:51:07;;;;;;;8.30;7.50;;;;;;;11.18;100.00;98048.13;5068321;28;20207;-53
2022/11/23 05:53:34;;;;;;;8.13;7.00;;;;;;;11.20;100.00;98061.03;5049480;28;20232;-55
2022/11/23 05:56:01;;;;;;;9.17;7.77;;;;;;;11.19;100.00;98065.41;5068414;28;20219;-55
2022/11/23 05:58:29;;;;;;;8.73;7.03;;;;;;;11.18;100.00;98057.69;5069173;28;20226;-55
2022/11/23 06:00:58;;;;;;;9.63;7.53;;;;;;;11.21;100.00;98062.72;5068716;28;20609;-58
2022/11/23 06:03:25;;;;;;;7.60;6.93;;;;;;;11.21;100.00;98049.72;5068836;28;20341;-58
2022/11/23 06:05:52;;;;;;;7.93;7.10;;;;;;;11.27;100.00;98046.81;5059276;28;20220;-58
2022/11/23 06:08:20;;;;;;;7.83;7.03;;;;;;;11.40;100.00;98057.38;5048243;28;20243;-57
2022/11/23 06:10:47;;;;;;;7.83;7.00;;;;;;;11.43;100.00;98060.63;5048737;28;20225;-57
2022/11/23 06:13:14;;;;;;;10.13;7.57;;;;;;;11.50;100.00;98058.53;5048994;28;20224;-58
2022/11/23 06:15:41;;;;;;;8.53;7.70;;;;;;;11.57;100.00;98052.91;5049028;28;20366;-57
2022/11/23 06:18:08;;;;;;;9.57;8.60;;;;;;;11.53;100.00;98053.16;5050317;28;20326;-54
2022/11/23 06:20:35;;;;;;;8.63;7.83;;;;;;;11.54;100.00;98052.22;5057348;28;20251;-54
2022/11/23 06:23:02;;;;;;;10.07;8.13;;;;;;;11.54;100.00;98065.22;5071301;28;20669;-58
2022/11/23 06:25:30;;;;;;;8.53;7.60;;;;;;;11.60;100.00;98057.09;5071180;28;20214;-58
2022/11/23 06:27:59;;;;;;;8.83;8.03;;;;;;;11.70;100.00;98065.22;5072976;28;20199;-58
2022/11/23 06:30:27;;;;;;;8.77;7.97;;;;;;;11.75;100.00;98074.44;5072704;28;20223;-57
2022/11/23 06:32:54;;;;;;;9.20;8.13;;;;;;;11.76;100.00;98075.28;5072286;28;20191;-59
2022/11/23 06:35:20;;;;;;;9.33;8.53;;;;;;;11.78;100.00;98065.63;5072666;28;20202;-59
2022/11/23 06:37:48;;;;;;;13.03;9.60;;;;;;;11.75;100.00;98083.97;5072109;28;20663;-58
2022/11/23 06:40:15;;;;;;;13.33;9.83;;;;;;;11.74;100.00;98090.91;5072362;28;20196;-57
2022/11/23 06:42:44;;;;;;;17.40;11.10;;;;;;;11.61;100.00;98096.00;5072513;28;20199;-58
2022/11/23 06:45:11;;;;;;;14.37;10.77;;;;;;;11.65;100.00;98100.06;5072570;28;20642;-58
2022/11/23 06:47:38;;;;;;;13.37;11.07;;;;;;;11.72;100.00;98103.19;5072348;28;20223;-58
2022/11/23 06:50:06;;;;;;;12.47;10.40;;;;;;;11.74;100.00;98108.31;5072044;28;20797;-57
2022/11/23 06:52:33;;;;;;;14.27;10.30;;;;;;;11.67;100.00;98096.56;5072671;28;20208;-58
2022/11/23 06:55:00;;;;;;;13.07;10.30;;;;;;;11.71;100.00;98100.66;5072049;28;20200;-58
2022/11/23 06:57:27;;;;;;;9.90;8.57;;;;;;;11.80;100.00;98092.38;5072268;28;20227;-58
2022/11/23 06:59:55;;;;;;;14.97;9.80;;;;;;;11.80;100.00;98090.63;5072343;28;20196;-58
2022/11/23 07:02:22;;;;;;;11.03;9.20;;;;;;;11.89;100.00;98091.84;5072331;28;20207;-54
2022/11/23 07:04:51;;;;;;;12.07;8.73;;;;;;;11.86;100.00;98084.22;5072117;28;20199;-58
2022/11/23 07:07:18;;;;;;;13.10;8.97;;;;;;;11.99;100.00;98098.22;5071991;28;20291;-58
2022/11/23 07:09:44;;;;;;;10.43;9.30;;;;;;;12.12;100.00;98099.19;5070965;28;20310;-58
2022/11/23 07:12:11;;;;;;;12.77;9.77;;;;;;;12.14;100.00;98099.09;5069332;28;20596;-57
2022/11/23 07:14:38;;;;;;;20.07;11.00;;;;;;;12.18;100.00;98092.81;5071894;28;20246;-57
2022/11/23 07:17:06;;;;;;;10.47;9.33;;;;;;;12.18;100.00;98098.84;5071686;28;20204;-57
2022/11/23 07:19:33;;;;;;;11.30;10.13;;;;;;;12.25;100.00;98107.97;5071574;28;20239;-58
2022/11/23 07:22:00;;;;;;;11.93;10.07;;;;;;;12.36;100.00;98108.19;5071537;28;20230;-55
2022/11/23 07:24:27;;;;;;;13.40;10.40;;;;;;;12.40;100.00;98100.19;5071962;28;20725;-54
2022/11/23 07:26:54;;;;;;;15.53;10.23;;;;;;;12.46;100.00;98107.63;5071696;28;20206;-55
2022/11/23 07:29:21;;;;;;;19.00;11.60;;;;;;;12.54;100.00;98111.44;5071835;28;20312;-55
2022/11/23 07:31:48;;;;;;;15.53;11.30;;;;;;;12.66;100.00;98121.13;5071320;28;20204;-58
2022/11/23 07:34:16;;;;;;;21.53;12.17;;;;;;;12.72;100.00;98109.53;5071388;28;20211;-57
2022/11/23 07:36:43;;;;;;;16.17;11.83;;;;;;;12.74;100.00;98115.50;5071498;28;20287;-57
2022/11/23 07:39:11;;;;;;;21.87;12.70;;;;;;;12.69;100.00;98133.13;5071175;28;20196;-57
2022/11/23 07:41:38;;;;;;;20.17;12.00;;;;;;;12.68;100.00;98137.50;5071273;28;20196;-57
2022/11/23 07:44:05;;;;;;;25.23;13.30;;;;;;;12.77;100.00;98133.50;5071371;28;20699;-57
2022/11/23 07:46:32;;;;;;;46.03;15.77;;;;;;;12.70;100.00;98127.00;5071094;28;20199;-57
2022/11/23 07:49:01;;;;;;;29.30;15.07;;;;;;;12.74;100.00;98131.13;5071055;28;20228;-58
2022/11/23 07:51:29;;;;;;;27.83;14.70;;;;;;;12.76;100.00;98131.84;5071440;28;20231;-58
2022/11/23 07:53:57;;;;;;;22.10;14.17;;;;;;;12.77;100.00;98130.91;5071250;28;20204;-56
2022/11/23 07:56:24;;;;;;;20.33;13.13;;;;;;;12.75;100.00;98130.19;5071548;28;20626;-57
2022/11/23 07:58:51;;;;;;;20.70;13.23;;;;;;;12.88;100.00;98138.06;5071001;28;20196;-58
2022/11/23 08:01:18;;;;;;;25.70;15.10;;;;;;;12.94;100.00;98135.13;5071251;28;20658;-54
2022/11/23 08:03:46;;;;;;;27.33;15.50;;;;;;;12.90;100.00;98129.25;5071075;28;20200;-54
2022/11/23 08:06:13;;;;;;;21.53;15.17;;;;;;;12.97;100.00;98140.16;5070861;28;20210;-54
2022/11/23 08:08:42;;;;;;;21.07;14.60;;;;;;;13.02;100.00;98132.88;5070671;28;20228;-54
2022/11/23 08:11:13;;;;;;;22.67;14.20;;;;;;;12.96;100.00;98139.31;5070405;28;20211;-54
2022/11/23 08:13:40;;;;;;;25.27;14.67;;;;;;;12.91;100.00;98150.91;5070490;28;20200;-54
2022/11/23 08:16:07;;;;;;;21.73;14.17;;;;;;;12.90;100.00;98144.88;5070918;28;20199;-58
2022/11/23 08:18:34;;;;;;;24.83;14.97;;;;;;;12.92;100.00;98143.03;5070772;28;20200;-58
2022/11/23 08:21:02;;;;;;;21.03;13.73;;;;;;;13.00;100.00;98143.38;5070737;28;20188;-57
2022/11/23 08:23:29;;;;;;;17.80;13.33;;;;;;;13.04;100.00;98144.06;5070607;28;20202;-57
2022/11/23 08:25:57;;;;;;;22.67;14.37;;;;;;;13.12;100.00;98151.38;5070220;28;20317;-57
2022/11/23 08:28:25;;;;;;;22.33;14.77;;;;;;;13.04;100.00;98152.69;5070394;28;20295;-57
2022/11/23 08:30:51;;;;;;;22.23;13.27;;;;;;;13.10;100.00;98151.47;5070483;28;20607;-58
2022/11/23 08:33:18;;;;;;;22.40;12.87;;;;;;;13.25;100.00;98154.97;5070492;28;20202;-54
2022/11/23 08:35:45;;;;;;;26.53;13.90;;;;;;;13.25;100.00;98157.56;5070428;28;20697;-54
2022/11/23 08:38:12;;;;;;;23.20;12.57;;;;;;;13.29;100.00;98135.63;5070398;28;20199;-54
2022/11/23 08:40:39;;;;;;;25.60;14.87;;;;;;;13.41;100.00;98145.28;5069643;28;20673;-55
2022/11/23 08:43:07;;;;;;;24.07;14.27;;;;;;;13.45;100.00;98144.13;5070083;28;20378;-54
2022/11/23 08:45:34;;;;;;;18.10;13.27;;;;;;;13.41;100.00;98133.09;5070524;28;20249;-55
2022/11/23 08:48:02;;;;;;;20.40;13.13;;;;;;;13.48;100.00;98133.53;5069988;28;20207;-59
2022/11/23 08:50:30;;;;;;;28.03;14.43;;;;;;;13.59;100.00;98128.47;5070074;28;20233;-57
2022/11/23 08:52:58;;;;;;;19.60;13.07;;;;;;;13.77;100.00;98127.31;5069894;28;20234;-58
2022/11/23 08:55:25;;;;;;;17.27;12.63;;;;;;;13.68;100.00;98117.47;5070090;28;20196;-60
2022/11/23 08:57:55;;;;;;;22.87;13.70;;;;;;;13.81;100.00;98138.38;5069904;28;20192;-59
2022/11/23 09:00:24;;;;;;;21.27;13.70;;;;;;;13.91;100.00;98123.81;5070111;28;20195;-59
2022/11/23 09:02:51;;;;;;;24.00;12.83;;;;;;;13.96;100.00;98126.97;5052823;28;20242;-58
2022/11/23 09:05:18;;;;;;;19.40;12.47;;;;;;;13.97;100.00;98130.41;5056497;28;20220;-58
2022/11/23 09:07:44;;;;;;;19.13;12.67;;;;;;;13.92;100.00;98133.31;5069376;28;20212;-56
2022/11/23 09:10:11;;;;;;;22.57;13.83;;;;;;;13.92;100.00;98120.28;5069572;28;20224;-57
2022/11/23 09:12:38;;;;;;;29.03;13.63;;;;;;;13.91;100.00;98116.00;5069335;28;20676;-57
2022/11/23 09:15:06;;;;;;;31.50;15.73;;;;;;;13.93;100.00;98114.13;5070226;28;20200;-57
2022/11/23 09:17:34;;;;;;;26.57;13.53;;;;;;;13.98;100.00;98100.81;5069802;28;20200;-58
2022/11/23 09:20:01;;;;;;;18.37;12.57;;;;;;;14.12;100.00;98108.53;5069536;28;20562;-57
2022/11/23 09:22:28;;;;;;;20.13;13.17;;;;;;;14.27;100.00;98107.53;5069672;28;20192;-54
2022/11/23 09:24:55;;;;;;;16.90;12.90;;;;;;;14.34;100.00;98100.97;5069782;28;20202;-54
2022/11/23 09:27:22;;;;;;;14.60;11.07;;;;;;;14.46;100.00;98100.19;5069445;28;20206;-54
2022/11/23 09:29:49;;;;;;;20.37;12.30;;;;;;;14.65;100.00;98091.13;5069347;28;20312;-57
2022/11/23 09:32:16;;;;;;;15.53;11.17;;;;;;;14.77;100.00;98083.28;5069518;28;20287;-57
2022/11/23 09:34:44;;;;;;;14.17;11.57;;;;;;;14.95;100.00;98085.56;5069643;28;20202;-57
2022/11/23 09:37:11;;;;;;;18.23;12.23;;;;;;;15.03;100.00;98084.09;5070198;28;20688;-58
2022/11/23 09:39:38;;;;;;;18.40;13.27;;;;;;;15.12;100.00;98066.97;5070345;28;20210;-58
2022/11/23 09:42:33;;;;;;;13.57;12.17;;;;;;;15.16;100.00;98069.22;5070191;28;20581;-54
2022/11/23 09:45:11;;;;;;;16.50;10.73;;;;;;;14.85;100.00;98072.31;5070028;28;20590;-58
2022/11/23 09:47:59;;;;;;;12.67;11.03;;;;;;;14.86;100.00;98071.38;5069965;28;20200;-57
2022/11/23 09:50:45;;;;;;;12.77;10.53;;;;;;;14.97;100.00;98068.00;5070227;28;20267;-57
2022/11/23 09:53:16;;;;;;;11.47;9.93;;;;;;;14.90;100.00;98063.19;5071742;28;20192;-58
2022/11/23 09:55:45;;;;;;;15.87;11.23;;;;;;;14.79;100.00;98063.09;5074149;28;20199;-58
2022/11/23 09:58:15;;;;;;;13.33;10.60;;;;;;;14.74;100.00;98065.22;5074381;28;20679;-58
2022/11/23 10:00:47;;;;;;;14.93;11.37;;;;;;;14.80;100.00;98059.56;5073802;28;20202;-58
2022/11/23 10:03:17;;;;;;;15.43;12.47;;;;;;;14.83;100.00;98055.91;5074055;28;20589;-57
2022/11/23 10:05:57;;;;;;;16.83;12.17;;;;;;;14.87;100.00;98057.38;5073713;28;20608;-58
2022/11/23 10:08:36;;;;;;;14.87;11.90;;;;;;;14.89;100.00;98045.03;5073331;28;20250;-58
2022/11/23 10:11:18;;;;;;;22.37;17.43;;;;;;;14.93;100.00;98056.94;5073969;28;20223;-57
2022/11/23 10:13:48;;;;;;;29.70;20.50;;;;;;;14.78;100.00;98051.00;5073862;28;20286;-58
2022/11/23 10:16:29;;;;;;;16.53;12.80;;;;;;;14.84;100.00;98049.75;5073800;28;20308;-57
2022/11/23 10:19:01;;;;;;;17.63;12.73;;;;;;;14.85;100.00;98033.13;5073589;28;20210;-57
2022/11/23 10:21:39;;;;;;;14.57;12.17;;;;;;;14.73;100.00;98034.81;5073881;28;20671;-57
2022/11/23 10:24:18;;;;;;;13.50;11.27;;;;;;;14.81;100.00;98044.72;5073647;28;20196;-58
2022/11/23 10:26:48;;;;;;;15.30;12.67;;;;;;;14.84;100.00;98032.28;5073509;28;20287;-58
2022/11/23 10:29:20;;;;;;;16.37;12.73;;;;;;;14.79;100.00;98036.97;5073449;28;20196;-54
2022/11/23 10:31:49;;;;;;;14.77;12.70;;;;;;;14.88;100.00;98032.94;5073607;28;20199;-54
2022/11/23 10:34:22;;;;;;;23.37;13.20;;;;;;;15.03;100.00;98038.84;5073307;28;20261;-57
2022/11/23 10:36:51;;;;;;;16.00;12.33;;;;;;;15.19;100.00;98053.34;5073064;28;20204;-57
2022/11/23 10:39:23;;;;;;;19.53;13.47;;;;;;;15.18;100.00;98053.44;5073199;28;20230;-57
2022/11/23 10:41:50;;;;;;;17.23;13.90;;;;;;;15.32;100.00;98053.31;5073084;28;20200;-58
2022/11/23 10:44:30;;;;;;;18.67;12.50;;;;;;;15.43;100.00;98055.16;5073160;28;20206;-54
2022/11/23 10:46:57;;;;;;;20.70;13.50;;;;;;;15.57;100.00;98049.81;5073039;28;20687;-54
2022/11/23 10:49:26;;;;;;;18.03;13.87;;;;;;;15.57;100.00;98050.63;5073084;28;20228;-54
2022/11/23 10:51:56;;;;;;;18.30;12.47;;;;;;;15.59;100.00;98055.72;5072893;28;20192;-55
2022/11/23 10:54:30;;;;;;;21.87;13.67;;;;;;;15.76;100.00;98039.66;5073334;28;20828;-53
2022/11/23 10:56:58;;;;;;;19.63;13.70;;;;;;;15.79;100.00;98034.22;5072976;28;20713;-55
2022/11/23 10:59:31;;;;;;;17.77;13.40;;;;;;;15.69;100.00;98025.34;5073107;28;20676;-55
2022/11/23 11:02:19;;;;;;;18.73;14.47;;;;;;;15.68;100.00;98021.09;5072819;28;20196;-54
2022/11/23 11:04:48;;;;;;;16.87;12.33;;;;;;;15.66;100.00;98049.13;5072658;28;20666;-55
2022/11/23 11:07:23;;;;;;;20.67;11.77;;;;;;;15.59;100.00;98047.88;5072602;28;20196;-54
2022/11/23 11:09:51;;;;;;;12.03;10.43;;;;;;;15.43;100.00;98035.06;5072364;28;20231;-58
2022/11/23 11:12:19;;;;;;;17.53;11.57;;;;;;;15.55;100.00;98041.22;5072689;28;20591;-58
2022/11/23 11:15:02;;;;;;;14.57;11.23;;;;;;;15.52;100.00;98033.56;5072657;28;20192;-57
2022/11/23 11:17:31;;;;;;;12.23;10.50;;;;;;;15.57;100.00;98041.97;5072801;28;20208;-54
2022/11/23 11:19:58;;;;;;;12.60;11.20;;;;;;;15.58;100.00;98041.81;5072364;28;20192;-53